Time;durP1;ratioP1;P1;durP2;ratioP2;P2;SDS_P1;SDS_P2;PMS_P1;PMS_P2;Temp;Humidity;BMP_temperature;BMP_pressure;BME280_temperature;BME280_humidity;BME280_pressure;Samples;Min_cycle;Max_cycle;Signal;HPM_P1;HPM_P2
2021/08/16 00:00:18;;;;;;;10.10;9.07;;;;;;;19.10;100.00;97678.66;5073063;28;20234;-62
2021/08/16 00:02:47;;;;;;;11.07;9.47;;;;;;;19.03;100.00;97678.50;5072879;28;20210;-63
2021/08/16 00:05:14;;;;;;;9.57;8.40;;;;;;;18.98;100.00;97680.88;5072631;28;20669;-62
2021/08/16 00:07:42;;;;;;;10.47;9.10;;;;;;;18.96;100.00;97687.41;5072626;28;20726;-63
2021/08/16 00:10:09;;;;;;;11.07;8.63;;;;;;;18.93;100.00;97672.50;5072680;28;20207;-63
2021/08/16 00:12:36;;;;;;;10.57;8.93;;;;;;;18.92;100.00;97676.19;5072766;28;20208;-63
2021/08/16 00:15:03;;;;;;;10.67;8.80;;;;;;;18.89;100.00;97673.00;5072985;28;20214;-63
2021/08/16 00:17:29;;;;;;;11.57;9.27;;;;;;;18.87;100.00;97683.88;5072622;28;20231;-63
2021/08/16 00:19:58;;;;;;;10.37;8.60;;;;;;;18.85;100.00;97669.00;5072752;28;20211;-63
2021/08/16 00:22:24;;;;;;;11.20;9.10;;;;;;;18.84;100.00;97670.81;5071209;28;20208;-63
2021/08/16 00:24:51;;;;;;;12.63;9.77;;;;;;;18.87;100.00;97661.59;5072514;28;20207;-63
2021/08/16 00:27:17;;;;;;;10.67;9.07;;;;;;;18.82;100.00;97667.47;5074166;28;20689;-63
2021/08/16 00:29:44;;;;;;;11.07;8.83;;;;;;;18.82;100.00;97655.91;5076712;28;20219;-63
2021/08/16 00:32:11;;;;;;;12.23;10.70;;;;;;;18.83;100.00;97661.13;5076744;28;20575;-63
2021/08/16 00:34:38;;;;;;;11.23;9.93;;;;;;;18.93;100.00;97661.78;5076744;28;20562;-63
2021/08/16 00:37:06;;;;;;;11.80;10.00;;;;;;;19.02;100.00;97654.59;5076196;28;20235;-63
2021/08/16 00:39:32;;;;;;;10.93;9.50;;;;;;;19.09;100.00;97653.72;5076661;28;20207;-63
2021/08/16 00:41:59;;;;;;;12.43;9.90;;;;;;;19.18;100.00;97652.69;5076480;28;20216;-63
2021/08/16 00:44:25;;;;;;;11.17;10.07;;;;;;;19.25;100.00;97645.69;5076380;28;20226;-63
2021/08/16 00:46:52;;;;;;;11.37;9.50;;;;;;;19.31;100.00;97642.31;5074731;28;20224;-63
2021/08/16 00:49:18;;;;;;;11.10;9.70;;;;;;;19.35;100.00;97651.69;5076264;28;20212;-63
2021/08/16 00:51:45;;;;;;;10.63;9.60;;;;;;;19.35;100.00;97646.34;5075967;28;20219;-63
2021/08/16 00:54:13;;;;;;;10.90;9.80;;;;;;;19.38;100.00;97637.94;5076256;28;20233;-63
2021/08/16 00:56:40;;;;;;;11.83;9.47;;;;;;;19.39;100.00;97630.75;5075909;28;20254;-63
2021/08/16 00:59:07;;;;;;;11.40;9.70;;;;;;;19.41;100.00;97634.94;5075178;28;20681;-63
2021/08/16 01:01:34;;;;;;;11.80;10.33;;;;;;;19.45;100.00;97636.22;5064286;28;20274;-63
2021/08/16 01:04:00;;;;;;;13.33;10.53;;;;;;;19.45;100.00;97636.22;5071012;28;20223;-63
2021/08/16 01:06:27;;;;;;;12.70;10.43;;;;;;;19.41;100.00;97636.75;5059259;28;20211;-63
2021/08/16 01:08:54;;;;;;;14.13;10.63;;;;;;;19.37;100.00;97633.59;5068653;28;20216;-63
2021/08/16 01:11:22;;;;;;;10.63;9.53;;;;;;;19.41;100.00;97626.88;5066593;28;20219;-63
2021/08/16 01:13:49;;;;;;;10.50;9.40;;;;;;;19.38;100.00;97629.91;5074255;28;20238;-63
2021/08/16 01:16:17;;;;;;;11.23;9.30;;;;;;;19.36;100.00;97637.28;5075505;28;20207;-63
2021/08/16 01:18:44;;;;;;;11.87;9.27;;;;;;;19.36;100.00;97641.78;5075796;28;20230;-63
2021/08/16 01:21:14;;;;;;;12.03;10.43;;;;;;;19.38;100.00;97645.97;5075489;28;20665;-63
2021/08/16 01:23:41;;;;;;;13.30;10.50;;;;;;;19.41;100.00;97639.44;5075352;28;20219;-63
2021/08/16 01:26:08;;;;;;;15.43;9.97;;;;;;;19.43;100.00;97648.97;5075574;28;20215;-63
2021/08/16 01:28:36;;;;;;;10.57;9.30;;;;;;;19.43;100.00;97640.94;5075277;28;20215;-63
2021/08/16 01:31:05;;;;;;;11.57;9.33;;;;;;;19.45;100.00;97641.59;5075468;28;20208;-63
2021/08/16 01:33:33;;;;;;;12.30;10.20;;;;;;;19.47;100.00;97644.94;5075561;28;20211;-63
2021/08/16 01:36:01;;;;;;;10.37;8.90;;;;;;;19.55;100.00;97634.19;5075541;28;20294;-63
2021/08/16 01:38:30;;;;;;;10.53;8.97;;;;;;;19.53;100.00;97652.31;5073475;28;20329;-63
2021/08/16 01:40:57;;;;;;;10.03;8.90;;;;;;;19.44;100.00;97642.59;5074720;28;20219;-63
2021/08/16 01:43:23;;;;;;;10.63;9.20;;;;;;;19.29;100.00;97638.97;5075270;28;20211;-63
2021/08/16 01:45:52;;;;;;;10.50;9.23;;;;;;;19.18;100.00;97631.28;5075232;28;20219;-63
2021/08/16 01:48:19;;;;;;;11.10;9.27;;;;;;;19.12;100.00;97629.28;5075364;28;20633;-63
2021/08/16 01:50:46;;;;;;;12.93;9.80;;;;;;;19.06;100.00;97635.31;5074956;28;20676;-63
2021/08/16 01:53:12;;;;;;;11.37;9.53;;;;;;;18.89;100.00;97636.34;5075214;28;20211;-63
2021/08/16 01:55:39;;;;;;;13.57;9.30;;;;;;;18.79;100.00;97638.38;5075160;28;20214;-63
2021/08/16 01:58:06;;;;;;;10.87;8.80;;;;;;;18.69;100.00;97632.34;5074894;28;20234;-63
2021/08/16 02:00:33;;;;;;;12.80;9.30;;;;;;;18.66;100.00;97632.66;5074857;28;20208;-63
2021/08/16 02:03:01;;;;;;;11.57;9.57;;;;;;;18.63;100.00;97640.19;5074664;28;20218;-63
2021/08/16 02:05:27;;;;;;;12.43;9.77;;;;;;;18.58;100.00;97647.88;5073279;28;20561;-63
2021/08/16 02:07:54;;;;;;;10.80;9.70;;;;;;;18.66;100.00;97654.09;5074517;28;20214;-62
2021/08/16 02:10:21;;;;;;;13.00;11.57;;;;;;;18.76;100.00;97651.22;5074797;28;20210;-63
2021/08/16 02:12:47;;;;;;;13.10;9.90;;;;;;;18.79;100.00;97654.44;5074786;28;20212;-63
2021/08/16 02:15:14;;;;;;;12.70;10.37;;;;;;;18.89;100.00;97648.91;5074747;28;20211;-63
2021/08/16 02:17:40;;;;;;;12.80;10.83;;;;;;;18.94;100.00;97652.75;5074420;28;20232;-63
2021/08/16 02:20:09;;;;;;;11.40;10.23;;;;;;;18.92;100.00;97654.75;5074356;28;20219;-62
2021/08/16 02:22:36;;;;;;;11.47;10.23;;;;;;;18.95;100.00;97653.59;5074305;28;20704;-63
2021/08/16 02:25:03;;;;;;;12.43;11.13;;;;;;;18.97;100.00;97657.75;5074107;28;20683;-63
2021/08/16 02:27:31;;;;;;;12.27;10.00;;;;;;;19.00;100.00;97660.09;5074234;28;20205;-63
2021/08/16 02:29:57;;;;;;;11.43;9.17;;;;;;;18.95;100.00;97659.75;5074493;28;20214;-63
2021/08/16 02:32:24;;;;;;;10.60;9.50;;;;;;;18.95;100.00;97664.31;5072754;28;20568;-63
2021/08/16 02:34:50;;;;;;;9.63;8.63;;;;;;;18.94;100.00;97666.13;5073994;28;20243;-63
2021/08/16 02:37:18;;;;;;;9.97;8.97;;;;;;;18.93;100.00;97669.81;5074110;28;20237;-63
2021/08/16 02:39:45;;;;;;;10.10;8.77;;;;;;;18.99;100.00;97677.19;5074430;28;20207;-63
2021/08/16 02:42:11;;;;;;;11.13;8.83;;;;;;;19.06;100.00;97683.53;5074032;28;20220;-63
2021/08/16 02:44:38;;;;;;;11.47;9.60;;;;;;;19.18;100.00;97686.69;5074058;28;20217;-64
2021/08/16 02:47:04;;;;;;;10.90;9.40;;;;;;;19.23;100.00;97689.72;5074087;28;20212;-63
2021/08/16 02:49:31;;;;;;;9.90;8.90;;;;;;;19.26;100.00;97700.94;5074200;28;20223;-63
2021/08/16 02:51:57;;;;;;;11.20;9.60;;;;;;;19.34;100.00;97698.25;5074033;28;20214;-63
2021/08/16 02:54:25;;;;;;;9.50;8.57;;;;;;;19.42;100.00;97700.06;5074061;28;20215;-63
2021/08/16 02:56:51;;;;;;;9.73;8.77;;;;;;;19.53;100.00;97697.03;5071928;28;20214;-63
2021/08/16 02:59:18;;;;;;;10.80;9.77;;;;;;;19.62;100.00;97696.81;5073958;28;20211;-63
2021/08/16 03:01:44;;;;;;;11.80;10.13;;;;;;;19.70;100.00;97695.97;5073849;28;20215;-63
2021/08/16 03:04:11;;;;;;;10.47;9.37;;;;;;;19.76;100.00;97690.75;5073941;28;20216;-63
2021/08/16 03:06:37;;;;;;;11.27;10.10;;;;;;;19.82;100.00;97689.22;5073622;28;20588;-63
2021/08/16 03:09:04;;;;;;;11.07;9.97;;;;;;;19.88;100.00;97688.53;5073650;28;20219;-63
2021/08/16 03:11:32;;;;;;;11.70;9.83;;;;;;;19.91;100.00;97688.16;5073437;28;20243;-63
2021/08/16 03:13:58;;;;;;;11.27;10.00;;;;;;;19.93;100.00;97684.31;5073680;28;20208;-63
2021/08/16 03:16:25;;;;;;;10.73;9.37;;;;;;;19.98;100.00;97697.19;5073587;28;20219;-63
2021/08/16 03:18:51;;;;;;;14.67;11.13;;;;;;;20.02;100.00;97701.19;5073153;28;20230;-63
2021/08/16 03:21:18;;;;;;;13.70;11.23;;;;;;;20.02;100.00;97707.41;5073159;28;20203;-63
2021/08/16 03:23:44;;;;;;;12.00;10.70;;;;;;;20.00;100.00;97705.91;5071892;28;20213;-63
2021/08/16 03:26:10;;;;;;;12.63;10.97;;;;;;;19.93;100.00;97705.75;5073387;28;20587;-63
2021/08/16 03:28:38;;;;;;;12.17;10.87;;;;;;;19.80;100.00;97710.84;5073361;28;20211;-63
2021/08/16 03:31:05;;;;;;;12.87;11.30;;;;;;;19.75;100.00;97710.53;5073261;28;20207;-63
2021/08/16 03:33:32;;;;;;;11.67;10.43;;;;;;;19.75;100.00;97717.75;5073428;28;20208;-63
2021/08/16 03:35:58;;;;;;;12.73;10.77;;;;;;;19.73;100.00;97709.03;5073329;28;20206;-63
2021/08/16 03:38:25;;;;;;;14.57;10.90;;;;;;;19.70;100.00;97704.00;5072880;28;20728;-63
2021/08/16 03:40:51;;;;;;;13.30;10.90;;;;;;;19.67;100.00;97710.56;5072895;28;20211;-63
2021/08/16 03:43:18;;;;;;;15.27;11.10;;;;;;;19.67;100.00;97709.72;5073178;28;20208;-63
2021/08/16 03:45:46;;;;;;;13.83;10.63;;;;;;;19.71;100.00;97717.25;5073178;28;20215;-63
2021/08/16 03:48:12;;;;;;;12.40;11.10;;;;;;;19.70;100.00;97710.19;5073087;28;20219;-63
2021/08/16 03:50:39;;;;;;;11.87;10.67;;;;;;;19.69;100.00;97719.25;5071442;28;20577;-63
2021/08/16 03:53:06;;;;;;;13.83;11.23;;;;;;;19.70;100.00;97728.16;5073056;28;20207;-63
2021/08/16 03:55:32;;;;;;;12.73;11.40;;;;;;;19.72;100.00;97729.66;5073064;28;20226;-63
2021/08/16 03:57:59;;;;;;;12.33;11.03;;;;;;;19.79;100.00;97727.94;5073026;28;20572;-63
2021/08/16 04:00:25;;;;;;;13.03;11.00;;;;;;;19.83;100.00;97731.13;5072995;28;20210;-63
2021/08/16 04:02:53;;;;;;;12.70;10.90;;;;;;;19.76;100.00;97725.59;5072434;28;20203;-63
2021/08/16 04:05:19;;;;;;;13.03;10.67;;;;;;;19.70;100.00;97731.66;5073030;28;20210;-63
2021/08/16 04:07:46;;;;;;;12.73;10.57;;;;;;;19.65;100.00;97723.31;5072935;28;20211;-63
2021/08/16 04:10:14;;;;;;;14.10;11.53;;;;;;;19.60;100.00;97731.03;5072580;28;20211;-63
2021/08/16 04:12:40;;;;;;;12.03;10.80;;;;;;;19.62;100.00;97736.22;5072906;28;20208;-63
2021/08/16 04:15:09;;;;;;;12.40;10.93;;;;;;;19.53;100.00;97730.03;5071022;28;20203;-63
2021/08/16 04:17:36;;;;;;;12.53;11.20;;;;;;;19.52;100.00;97741.75;5072564;28;20231;-64
2021/08/16 04:20:06;;;;;;;13.23;11.00;;;;;;;19.55;100.00;97745.94;5072909;28;20203;-63
2021/08/16 04:22:32;;;;;;;12.03;9.70;;;;;;;19.47;100.00;97745.97;5072756;28;20211;-64
2021/08/16 04:24:59;;;;;;;11.77;10.40;;;;;;;19.51;100.00;97756.16;5072831;28;20212;-64
2021/08/16 04:27:26;;;;;;;11.97;9.97;;;;;;;19.48;100.00;97751.16;5072834;28;20253;-64
2021/08/16 04:29:52;;;;;;;10.10;9.10;;;;;;;19.47;100.00;97754.84;5072674;28;20210;-64
2021/08/16 04:32:19;;;;;;;9.60;8.67;;;;;;;19.45;100.00;97756.84;5072709;28;20203;-63
2021/08/16 04:34:46;;;;;;;9.67;8.63;;;;;;;19.46;100.00;97760.38;5072490;28;20235;-63
2021/08/16 04:37:13;;;;;;;10.80;9.43;;;;;;;19.42;100.00;97749.16;5072502;28;20204;-63
2021/08/16 04:39:40;;;;;;;9.77;8.73;;;;;;;19.39;100.00;97760.19;5072724;28;20239;-63
2021/08/16 04:42:06;;;;;;;11.10;9.00;;;;;;;19.44;100.00;97760.53;5071220;28;20579;-63
2021/08/16 04:44:33;;;;;;;9.90;7.93;;;;;;;19.37;100.00;97775.63;5072719;28;20212;-63
2021/08/16 04:46:59;;;;;;;10.57;8.73;;;;;;;19.41;100.00;97784.16;5072600;28;20234;-63
2021/08/16 04:49:26;;;;;;;10.60;8.50;;;;;;;19.53;100.00;97780.97;5072934;28;20591;-63
2021/08/16 04:51:52;;;;;;;12.47;8.33;;;;;;;19.54;100.00;97774.59;5072498;28;20212;-63
2021/08/16 04:54:20;;;;;;;11.33;8.57;;;;;;;19.53;100.00;97772.94;5072612;28;20222;-63
2021/08/16 04:56:47;;;;;;;12.10;8.90;;;;;;;19.45;100.00;97770.25;5072409;28;20207;-63
2021/08/16 04:59:13;;;;;;;10.97;8.67;;;;;;;19.45;100.00;97770.25;5072611;28;20250;-63
2021/08/16 05:01:40;;;;;;;8.87;7.80;;;;;;;19.44;100.00;97773.13;5072587;28;20212;-63
2021/08/16 05:04:06;;;;;;;8.67;7.53;;;;;;;19.45;100.00;97780.97;5072273;28;20669;-63
2021/08/16 05:06:33;;;;;;;11.77;8.10;;;;;;;19.44;100.00;97792.69;5071244;28;20215;-63
2021/08/16 05:09:00;;;;;;;9.30;8.40;;;;;;;19.44;100.00;97799.91;5071989;28;20208;-64
2021/08/16 05:11:29;;;;;;;8.37;7.57;;;;;;;19.43;100.00;97809.78;5072183;28;20629;-64
2021/08/16 05:13:55;;;;;;;10.73;8.00;;;;;;;19.44;100.00;97810.66;5073439;28;20208;-64
2021/08/16 05:16:25;;;;;;;11.43;7.57;;;;;;;19.53;100.00;97825.69;5075700;28;20218;-63
2021/08/16 05:18:52;;;;;;;8.77;7.33;;;;;;;19.71;100.00;97831.72;5075584;28;20241;-64
2021/08/16 05:21:19;;;;;;;9.70;7.77;;;;;;;19.89;100.00;97830.53;5075873;28;20214;-63
2021/08/16 05:23:45;;;;;;;8.93;7.03;;;;;;;20.07;100.00;97828.50;5075762;28;20211;-63
2021/08/16 05:26:12;;;;;;;10.67;7.07;;;;;;;20.03;100.00;97828.97;5075703;28;20238;-64
2021/08/16 05:28:40;;;;;;;8.40;6.90;;;;;;;20.07;100.00;97828.50;5075583;28;20215;-63
2021/08/16 05:31:06;;;;;;;7.50;6.70;;;;;;;20.11;100.00;97837.84;5075620;28;20206;-63
2021/08/16 05:33:33;;;;;;;13.30;7.57;;;;;;;20.15;100.00;97833.84;5073853;28;20207;-65
2021/08/16 05:35:59;;;;;;;9.83;6.57;;;;;;;20.18;100.00;97828.09;5075549;28;20215;-63
2021/08/16 05:38:26;;;;;;;8.47;6.63;;;;;;;20.16;100.00;97835.50;5075496;28;20229;-63
2021/08/16 05:40:52;;;;;;;9.30;6.53;;;;;;;20.16;100.00;97845.38;5075528;28;20211;-63
2021/08/16 05:43:19;;;;;;;7.47;6.43;;;;;;;20.10;100.00;97849.59;5075501;28;20208;-63
2021/08/16 05:45:47;;;;;;;7.93;6.30;;;;;;;20.08;100.00;97854.31;5075363;28;20210;-64
2021/08/16 05:48:17;;;;;;;9.27;6.77;;;;;;;20.04;100.00;97855.63;5075358;28;20208;-64
2021/08/16 05:50:43;;;;;;;8.53;6.70;;;;;;;20.07;100.00;97862.53;5075336;28;20273;-64
2021/08/16 05:53:10;;;;;;;7.60;5.87;;;;;;;19.98;100.00;97869.72;5075301;28;20214;-64
2021/08/16 05:55:37;;;;;;;10.83;6.83;;;;;;;20.01;100.00;97865.88;5075328;28;20223;-63
2021/08/16 05:58:04;;;;;;;7.67;5.53;;;;;;;20.07;100.00;97884.84;5075085;28;20236;-63
2021/08/16 06:00:30;;;;;;;7.97;6.33;;;;;;;20.03;100.00;97883.47;5073440;28;20207;-63
2021/08/16 06:02:58;;;;;;;9.50;5.80;;;;;;;20.13;100.00;97883.31;5075126;28;20211;-63
2021/08/16 06:05:25;;;;;;;6.97;5.50;;;;;;;20.26;100.00;97894.34;5075025;28;20216;-63
2021/08/16 06:07:51;;;;;;;5.80;5.20;;;;;;;20.37;100.00;97894.81;5074602;28;20215;-63
2021/08/16 06:10:18;;;;;;;6.53;5.50;;;;;;;20.38;100.00;97888.44;5074812;28;20219;-63
2021/08/16 06:12:44;;;;;;;6.87;5.13;;;;;;;20.24;100.00;97894.50;5074829;28;20218;-63
2021/08/16 06:15:12;;;;;;;7.47;5.40;;;;;;;20.13;100.00;97899.41;5074550;28;20220;-63
2021/08/16 06:17:40;;;;;;;6.60;4.83;;;;;;;20.01;100.00;97896.22;5074783;28;20348;-63
2021/08/16 06:20:10;;;;;;;4.97;4.40;;;;;;;20.03;100.00;97893.34;5074711;28;20239;-63
2021/08/16 06:22:38;;;;;;;7.37;4.50;;;;;;;20.82;99.31;97897.66;5074796;28;20222;-63
2021/08/16 06:25:05;;;;;;;6.07;4.23;;;;;;;21.75;89.60;97896.63;5072544;28;20211;-63
2021/08/16 06:27:31;;;;;;;7.83;4.70;;;;;;;22.44;83.44;97899.78;5074420;28;20203;-63
2021/08/16 06:29:58;;;;;;;5.07;4.03;;;;;;;22.75;79.06;97905.81;5074221;28;20218;-63
2021/08/16 06:32:24;;;;;;;4.93;3.90;;;;;;;22.33;78.28;97908.31;5074201;28;20216;-64
2021/08/16 06:34:51;;;;;;;5.90;3.80;;;;;;;21.58;83.47;97906.59;5074599;28;20574;-64
2021/08/16 06:37:19;;;;;;;5.03;4.07;;;;;;;21.08;87.28;97908.97;5074558;28;20211;-63
2021/08/16 06:39:46;;;;;;;5.13;4.03;;;;;;;20.86;90.59;97920.47;5074171;28;20242;-65
2021/08/16 06:42:12;;;;;;;5.93;4.07;;;;;;;20.77;91.91;97921.53;5074412;28;20257;-63
2021/08/16 06:44:39;;;;;;;6.13;4.13;;;;;;;20.72;93.76;97929.25;5074329;28;20230;-63
2021/08/16 06:47:06;;;;;;;5.63;4.60;;;;;;;20.67;94.25;97931.63;5074225;28;20214;-63
2021/08/16 06:49:32;;;;;;;6.27;4.23;;;;;;;20.70;95.09;97920.53;5074189;28;20267;-63
2021/08/16 06:51:58;;;;;;;5.17;4.07;;;;;;;20.88;94.87;97931.06;5072378;28;20227;-63
2021/08/16 06:54:26;;;;;;;4.90;3.93;;;;;;;20.91;93.03;97939.63;5074094;28;20585;-63
2021/08/16 06:56:53;;;;;;;4.30;3.90;;;;;;;20.88;91.83;97949.88;5074141;28;20214;-64
2021/08/16 06:59:19;;;;;;;5.13;4.30;;;;;;;20.87;93.53;97943.66;5074023;28;20238;-62
2021/08/16 07:01:46;;;;;;;7.03;4.00;;;;;;;20.85;92.16;97955.59;5073675;28;20225;-62
2021/08/16 07:04:12;;;;;;;5.23;3.60;;;;;;;20.89;89.35;97960.44;5073892;28;20203;-61
2021/08/16 07:06:39;;;;;;;5.83;3.33;;;;;;;20.94;87.48;97958.09;5073798;28;20229;-62
2021/08/16 07:09:05;;;;;;;4.20;3.10;;;;;;;21.01;83.61;97945.63;5073739;28;20325;-61
2021/08/16 07:11:33;;;;;;;4.80;3.30;;;;;;;21.10;85.49;97939.19;5073658;28;20218;-62
2021/08/16 07:14:00;;;;;;;4.60;3.00;;;;;;;21.25;85.90;97941.97;5070238;28;20683;-62
2021/08/16 07:16:26;;;;;;;4.73;3.40;;;;;;;21.33;85.75;97940.06;5071578;28;20210;-62
2021/08/16 07:18:53;;;;;;;4.30;3.60;;;;;;;21.40;83.88;97929.44;5072019;28;20235;-61
2021/08/16 07:21:19;;;;;;;5.20;3.43;;;;;;;21.39;85.35;97935.84;5072073;28;20207;-62
2021/08/16 07:23:46;;;;;;;6.17;4.00;;;;;;;21.30;83.14;97943.13;5071031;28;20699;-62
2021/08/16 07:26:12;;;;;;;5.67;3.70;;;;;;;21.06;84.16;97943.25;5071518;28;20208;-61
2021/08/16 07:28:41;;;;;;;4.73;4.07;;;;;;;20.87;87.55;97954.41;5071313;28;20692;-62
2021/08/16 07:31:08;;;;;;;5.80;3.67;;;;;;;20.82;90.23;97951.38;5072645;28;20212;-61
2021/08/16 07:33:34;;;;;;;5.33;3.60;;;;;;;20.81;88.44;97955.09;5071776;28;20206;-63
2021/08/16 07:36:01;;;;;;;5.53;3.57;;;;;;;20.90;89.11;97954.06;5071059;28;20687;-62
2021/08/16 07:38:27;;;;;;;4.40;3.50;;;;;;;21.01;89.85;97945.63;5071952;28;20213;-61
2021/08/16 07:40:54;;;;;;;5.77;3.70;;;;;;;21.14;87.46;97956.63;5072313;28;20212;-62
2021/08/16 07:43:21;;;;;;;4.47;3.80;;;;;;;21.22;84.34;97953.09;5070276;28;20225;-62
2021/08/16 07:45:49;;;;;;;4.83;3.67;;;;;;;21.28;81.32;97953.19;5072088;28;20558;-62
2021/08/16 07:48:16;;;;;;;4.93;3.30;;;;;;;21.39;80.51;97963.56;5072499;28;20661;-62
2021/08/16 07:50:43;;;;;;;5.03;3.30;;;;;;;21.67;80.32;97961.22;5073336;28;20215;-61
2021/08/16 07:53:09;;;;;;;3.87;3.23;;;;;;;21.87;77.52;97965.09;5073276;28;20214;-61
2021/08/16 07:55:36;;;;;;;4.27;3.37;;;;;;;21.95;73.48;97973.94;5073054;28;20220;-61
2021/08/16 07:58:02;;;;;;;5.53;3.13;;;;;;;22.06;73.01;97965.44;5073240;28;20210;-62
2021/08/16 08:00:29;;;;;;;4.30;3.20;;;;;;;22.02;72.87;97969.53;5072908;28;20249;-61
2021/08/16 08:02:57;;;;;;;4.00;3.10;;;;;;;21.99;72.71;97972.56;5073063;28;20215;-62
2021/08/16 08:05:25;;;;;;;7.77;3.80;;;;;;;22.15;74.95;97972.44;5073101;28;20554;-62
2021/08/16 08:07:52;;;;;;;5.43;3.30;;;;;;;22.47;74.53;97977.53;5072886;28;20672;-62
2021/08/16 08:10:20;;;;;;;5.27;3.27;;;;;;;22.78;73.10;97978.22;5071251;28;20215;-61
2021/08/16 08:12:48;;;;;;;4.80;3.03;;;;;;;23.15;71.47;97975.41;5072648;28;20216;-62
2021/08/16 08:15:15;;;;;;;4.27;3.07;;;;;;;23.47;68.71;97982.25;5072991;28;20570;-62
2021/08/16 08:17:42;;;;;;;4.60;2.80;;;;;;;23.60;68.62;97985.94;5072713;28;20218;-63
2021/08/16 08:20:11;;;;;;;3.53;2.93;;;;;;;23.60;68.15;97982.41;5072756;28;20235;-62
2021/08/16 08:22:38;;;;;;;5.13;3.30;;;;;;;23.53;64.73;97985.03;5072924;28;20215;-62
2021/08/16 08:25:05;;;;;;;3.90;3.07;;;;;;;23.41;65.71;97975.75;5072865;28;20212;-62
2021/08/16 08:27:32;;;;;;;5.43;3.63;;;;;;;23.40;67.86;97974.09;5072673;28;20226;-62
2021/08/16 08:29:59;;;;;;;5.83;3.20;;;;;;;23.25;65.04;97970.59;5072809;28;20214;-62
2021/08/16 08:32:25;;;;;;;4.10;3.27;;;;;;;23.07;65.92;97971.97;5072786;28;20212;-62
2021/08/16 08:34:52;;;;;;;5.67;3.53;;;;;;;22.92;67.17;97974.69;5071072;28;20239;-62
2021/08/16 08:37:19;;;;;;;6.43;3.90;;;;;;;22.78;67.25;97972.81;5072362;28;20214;-62
2021/08/16 08:39:47;;;;;;;4.40;3.40;;;;;;;22.68;67.50;97977.66;5072297;28;20260;-62
2021/08/16 08:42:14;;;;;;;4.70;3.47;;;;;;;22.61;68.17;97975.91;5072665;28;20215;-62
2021/08/16 08:44:42;;;;;;;5.77;3.60;;;;;;;22.46;68.79;97975.03;5072591;28;20207;-62
2021/08/16 08:47:09;;;;;;;5.53;3.97;;;;;;;22.42;69.97;97979.06;5072553;28;20218;-62
2021/08/16 08:49:37;;;;;;;5.30;3.50;;;;;;;22.38;70.33;97983.16;5076232;28;20211;-62
2021/08/16 08:52:04;;;;;;;4.47;3.50;;;;;;;22.27;69.18;97989.84;5076449;28;20214;-62
2021/08/16 08:54:34;;;;;;;5.97;3.80;;;;;;;22.25;70.42;97986.47;5076303;28;20203;-62
2021/08/16 08:57:01;;;;;;;7.40;3.83;;;;;;;22.39;72.28;97982.13;5076559;28;20221;-63
2021/08/16 08:59:27;;;;;;;4.30;3.80;;;;;;;22.56;70.63;97981.81;5076287;28;20309;-63
2021/08/16 09:01:56;;;;;;;4.33;3.50;;;;;;;22.71;69.90;97982.69;5074643;28;20207;-62
2021/08/16 09:04:23;;;;;;;5.23;3.67;;;;;;;22.72;67.38;97981.66;5076067;28;20211;-62
2021/08/16 09:06:50;;;;;;;5.83;3.60;;;;;;;22.48;66.98;97973.81;5076064;28;20234;-62
2021/08/16 09:09:18;;;;;;;6.17;3.87;;;;;;;22.57;66.24;97980.81;5075565;28;20215;-62
2021/08/16 09:11:49;;;;;;;6.67;4.07;;;;;;;22.62;67.38;97973.00;5075859;28;20297;-62
2021/08/16 09:14:15;;;;;;;5.47;3.93;;;;;;;22.76;67.72;97974.88;5076016;28;20208;-62
2021/08/16 09:16:45;;;;;;;6.57;3.87;;;;;;;22.77;67.21;97971.16;5075547;28;20211;-62
2021/08/16 09:19:14;;;;;;;7.13;3.87;;;;;;;22.84;66.52;97977.47;5075588;28;20266;-62
2021/08/16 09:21:42;;;;;;;6.67;3.80;;;;;;;23.00;66.16;97968.34;5075584;28;20211;-62
2021/08/16 09:24:09;;;;;;;5.33;3.93;;;;;;;23.16;65.01;97971.72;5075419;28;20211;-62
2021/08/16 09:26:38;;;;;;;5.10;3.77;;;;;;;23.25;64.27;97967.91;5075599;28;20214;-62
2021/08/16 09:29:14;;;;;;;5.90;4.03;;;;;;;23.38;66.43;97968.06;5074197;28;20211;-62
2021/08/16 09:31:54;;;;;;;6.77;3.53;;;;;;;23.44;65.02;97975.38;5075579;28;20218;-61
2021/08/16 09:34:29;;;;;;;7.47;3.53;;;;;;;23.32;64.23;97970.66;5075322;28;20238;-64
2021/08/16 09:36:56;;;;;;;6.90;3.80;;;;;;;23.18;66.27;97972.38;5075307;28;20670;-63
2021/08/16 09:39:24;;;;;;;4.37;3.27;;;;;;;23.08;66.79;97971.78;5075433;28;20594;-64
2021/08/16 09:41:57;;;;;;;5.13;3.53;;;;;;;23.18;65.28;97969.69;5074887;28;20204;-63
2021/08/16 09:44:26;;;;;;;5.77;3.33;;;;;;;23.28;63.84;97964.81;5074784;28;20207;-64
2021/08/16 09:47:00;;;;;;;5.57;3.67;;;;;;;23.23;63.93;97966.41;5074882;28;20222;-62
2021/08/16 09:49:26;;;;;;;5.80;3.67;;;;;;;23.33;62.55;97951.59;5074775;28;20219;-64
2021/08/16 09:52:02;;;;;;;5.77;3.10;;;;;;;23.30;62.04;97951.13;5074528;28;20218;-64
2021/08/16 09:54:29;;;;;;;4.73;3.20;;;;;;;23.30;63.73;97940.34;5072952;28;20217;-62
2021/08/16 09:56:56;;;;;;;7.00;3.30;;;;;;;23.49;61.19;97943.28;5074602;28;20219;-63
2021/08/16 09:59:25;;;;;;;5.43;2.90;;;;;;;23.39;62.07;97931.94;5073535;28;20599;-63
2021/08/16 10:01:51;;;;;;;4.93;2.90;;;;;;;23.41;62.64;97937.97;5074557;28;20215;-63
2021/08/16 10:04:18;;;;;;;4.27;3.00;;;;;;;23.58;59.40;97938.59;5074363;28;20216;-63
2021/08/16 10:06:45;;;;;;;4.00;2.97;;;;;;;23.78;60.25;97948.53;5074454;28;20207;-63
2021/08/16 10:09:13;;;;;;;5.57;2.93;;;;;;;23.53;57.47;97944.56;5074368;28;20214;-63
2021/08/16 10:11:42;;;;;;;4.63;3.30;;;;;;;23.32;59.69;97944.53;5074421;28;20207;-63
2021/08/16 10:14:09;;;;;;;5.43;2.83;;;;;;;23.21;60.60;97953.09;5074126;28;20668;-63
2021/08/16 10:16:40;;;;;;;6.20;3.20;;;;;;;23.30;60.44;97940.34;5074273;28;20224;-62
2021/08/16 10:19:11;;;;;;;5.17;2.90;;;;;;;23.33;59.75;97939.97;5074172;28;20243;-63
2021/08/16 10:21:39;;;;;;;6.20;3.33;;;;;;;23.14;60.82;97940.53;5072642;28;20298;-63
2021/08/16 10:24:17;;;;;;;4.13;2.93;;;;;;;23.11;61.13;97949.81;5073976;28;20250;-62
2021/08/16 10:26:54;;;;;;;6.17;3.07;;;;;;;23.23;60.77;97945.66;5073936;28;20614;-62
2021/08/16 10:29:22;;;;;;;3.33;2.40;;;;;;;23.45;59.66;97954.63;5074003;28;20211;-62
2021/08/16 10:31:52;;;;;;;4.93;3.03;;;;;;;23.28;59.47;97954.03;5073772;28;21122;-63
2021/08/16 10:34:25;;;;;;;3.87;2.90;;;;;;;23.44;59.96;97959.19;5073513;28;20701;-63
2021/08/16 10:36:59;;;;;;;5.40;2.90;;;;;;;23.43;59.42;97964.78;5073681;28;20208;-63
2021/08/16 10:39:36;;;;;;;4.87;2.97;;;;;;;23.28;58.93;97959.41;5073384;28;20211;-63
2021/08/16 10:42:08;;;;;;;5.03;2.90;;;;;;;22.95;58.70;97958.13;5073428;28;20207;-63
2021/08/16 10:44:40;;;;;;;6.47;3.30;;;;;;;22.65;58.35;97956.47;5073661;28;20214;-63
2021/08/16 10:47:08;;;;;;;3.77;2.83;;;;;;;22.71;60.30;97954.88;5071785;28;20243;-63
2021/08/16 10:49:36;;;;;;;5.03;2.93;;;;;;;22.84;58.71;97942.44;5073272;28;20237;-63
2021/08/16 10:52:04;;;;;;;3.83;2.90;;;;;;;22.81;57.49;97940.09;5073588;28;20218;-63
2021/08/16 10:54:32;;;;;;;4.90;2.90;;;;;;;22.98;57.95;97946.97;5073667;28;20211;-64
2021/08/16 10:57:00;;;;;;;5.47;2.80;;;;;;;22.89;56.36;97948.09;5073227;28;20214;-64
2021/08/16 10:59:28;;;;;;;5.03;2.97;;;;;;;22.74;57.14;97949.97;5073425;28;20214;-64
2021/08/16 11:01:56;;;;;;;4.80;3.00;;;;;;;22.82;58.20;97939.09;5073459;28;20215;-64
2021/08/16 11:04:34;;;;;;;3.43;2.43;;;;;;;22.91;58.75;97946.06;5073401;28;20215;-64
2021/08/16 11:07:03;;;;;;;4.57;2.50;;;;;;;22.99;58.65;97937.03;5073141;28;20207;-64
2021/08/16 11:09:31;;;;;;;4.73;2.70;;;;;;;23.08;59.28;97947.53;5067167;28;20220;-64
2021/08/16 11:12:05;;;;;;;3.93;2.70;;;;;;;22.93;58.28;97944.00;5061387;28;20219;-64
2021/08/16 11:14:32;;;;;;;5.10;2.67;;;;;;;22.93;59.27;97930.50;5056829;28;20243;-64
2021/08/16 11:16:59;;;;;;;4.67;2.90;;;;;;;23.04;59.54;97930.03;5068130;28;20215;-64
2021/08/16 11:19:27;;;;;;;4.47;2.97;;;;;;;23.10;59.02;97918.50;5057411;28;20676;-63
2021/08/16 11:21:56;;;;;;;5.83;2.60;;;;;;;23.28;58.36;97916.25;5062077;28;20228;-64
2021/08/16 11:24:27;;;;;;;5.57;3.00;;;;;;;23.69;57.29;97920.03;5065855;28;20218;-64